sensor_id;sensor_type;location;lat;lon;timestamp;temperature;humidity
23507;DHT22;11930;53.076;18.250;2023-06-24T00:00:32;18.00;99.90
23507;DHT22;11930;53.076;18.250;2023-06-24T00:05:46;17.90;99.90
23507;DHT22;11930;53.076;18.250;2023-06-24T00:08:18;17.90;99.90
23507;DHT22;11930;53.076;18.250;2023-06-24T00:10:46;17.90;99.90
23507;DHT22;11930;53.076;18.250;2023-06-24T00:13:13;17.90;99.90
23507;DHT22;11930;53.076;18.250;2023-06-24T00:15:40;17.90;99.90
23507;DHT22;11930;53.076;18.250;2023-06-24T00:18:12;17.80;99.90
23507;DHT22;11930;53.076;18.250;2023-06-24T00:20:38;17.80;99.90
23507;DHT22;11930;53.076;18.250;2023-06-24T00:23:05;17.80;99.90
23507;DHT22;11930;53.076;18.250;2023-06-24T00:25:31;17.80;99.90
23507;DHT22;11930;53.076;18.250;2023-06-24T00:27:58;17.70;99.90
23507;DHT22;11930;53.076;18.250;2023-06-24T00:30:26;17.70;99.90
23507;DHT22;11930;53.076;18.250;2023-06-24T00:32:52;17.70;99.90
23507;DHT22;11930;53.076;18.250;2023-06-24T00:35:18;17.70;99.90
23507;DHT22;11930;53.076;18.250;2023-06-24T00:40:14;17.60;99.90
23507;DHT22;11930;53.076;18.250;2023-06-24T00:42:44;17.60;99.90
23507;DHT22;11930;53.076;18.250;2023-06-24T00:45:11;17.60;99.90
23507;DHT22;11930;53.076;18.250;2023-06-24T00:47:38;17.60;99.90
23507;DHT22;11930;53.076;18.250;2023-06-24T00:50:06;17.60;99.90
23507;DHT22;11930;53.076;18.250;2023-06-24T00:52:32;17.60;99.90
23507;DHT22;11930;53.076;18.250;2023-06-24T00:54:59;17.50;99.90
23507;DHT22;11930;53.076;18.250;2023-06-24T00:57:28;17.50;99.90
23507;DHT22;11930;53.076;18.250;2023-06-24T00:59:55;17.50;99.90
23507;DHT22;11930;53.076;18.250;2023-06-24T01:02:22;17.50;99.90
23507;DHT22;11930;53.076;18.250;2023-06-24T01:04:54;17.40;99.90
23507;DHT22;11930;53.076;18.250;2023-06-24T01:07:21;17.40;99.90
23507;DHT22;11930;53.076;18.250;2023-06-24T01:12:13;17.40;99.90
23507;DHT22;11930;53.076;18.250;2023-06-24T01:14:40;17.50;99.90
23507;DHT22;11930;53.076;18.250;2023-06-24T01:17:16;17.30;99.90
23507;DHT22;11930;53.076;18.250;2023-06-24T01:23:03;17.40;99.90
23507;DHT22;11930;53.076;18.250;2023-06-24T01:31:46;17.20;99.90
23507;DHT22;11930;53.076;18.250;2023-06-24T01:34:43;17.20;99.90
23507;DHT22;11930;53.076;18.250;2023-06-24T01:37:16;17.20;99.90
23507;DHT22;11930;53.076;18.250;2023-06-24T01:39:57;17.10;99.90
23507;DHT22;11930;53.076;18.250;2023-06-24T01:42:28;17.10;99.90
23507;DHT22;11930;53.076;18.250;2023-06-24T01:44:57;17.10;99.90
23507;DHT22;11930;53.076;18.250;2023-06-24T01:47:26;17.10;99.90
23507;DHT22;11930;53.076;18.250;2023-06-24T01:49:58;17.10;99.90
23507;DHT22;11930;53.076;18.250;2023-06-24T01:52:28;17.00;99.90
23507;DHT22;11930;53.076;18.250;2023-06-24T01:54:55;17.00;99.90
23507;DHT22;11930;53.076;18.250;2023-06-24T01:57:23;17.00;99.90
23507;DHT22;11930;53.076;18.250;2023-06-24T01:59:51;17.00;99.90
23507;DHT22;11930;53.076;18.250;2023-06-24T02:02:18;16.90;99.90
23507;DHT22;11930;53.076;18.250;2023-06-24T02:04:50;17.00;99.90
23507;DHT22;11930;53.076;18.250;2023-06-24T02:07:19;16.90;99.90
23507;DHT22;11930;53.076;18.250;2023-06-24T02:09:48;16.70;99.90
23507;DHT22;11930;53.076;18.250;2023-06-24T02:12:15;16.80;99.90
23507;DHT22;11930;53.076;18.250;2023-06-24T02:14:41;16.80;99.90
23507;DHT22;11930;53.076;18.250;2023-06-24T02:17:34;16.80;99.90
23507;DHT22;11930;53.076;18.250;2023-06-24T02:20:06;16.70;99.90
23507;DHT22;11930;53.076;18.250;2023-06-24T02:22:37;16.60;99.90
23507;DHT22;11930;53.076;18.250;2023-06-24T02:25:05;16.70;99.90
23507;DHT22;11930;53.076;18.250;2023-06-24T02:27:32;16.70;99.90
23507;DHT22;11930;53.076;18.250;2023-06-24T02:30:00;16.70;99.90
23507;DHT22;11930;53.076;18.250;2023-06-24T02:32:26;16.70;99.90
23507;DHT22;11930;53.076;18.250;2023-06-24T02:37:21;16.70;99.90
23507;DHT22;11930;53.076;18.250;2023-06-24T02:39:47;16.80;99.90
23507;DHT22;11930;53.076;18.250;2023-06-24T02:42:13;16.80;99.90
23507;DHT22;11930;53.076;18.250;2023-06-24T02:44:40;16.80;99.90
23507;DHT22;11930;53.076;18.250;2023-06-24T02:47:09;16.90;99.90
23507;DHT22;11930;53.076;18.250;2023-06-24T02:49:37;16.90;99.90
23507;DHT22;11930;53.076;18.250;2023-06-24T02:52:05;16.90;99.90
23507;DHT22;11930;53.076;18.250;2023-06-24T02:54:33;16.90;99.90
23507;DHT22;11930;53.076;18.250;2023-06-24T02:57:17;17.00;99.90
23507;DHT22;11930;53.076;18.250;2023-06-24T03:00:12;17.00;99.90
23507;DHT22;11930;53.076;18.250;2023-06-24T03:03:00;17.00;99.90
23507;DHT22;11930;53.076;18.250;2023-06-24T03:05:28;17.10;99.90
23507;DHT22;11930;53.076;18.250;2023-06-24T03:07:57;17.00;99.90
23507;DHT22;11930;53.076;18.250;2023-06-24T03:10:24;17.00;99.90
23507;DHT22;11930;53.076;18.250;2023-06-24T03:15:24;17.00;99.90
23507;DHT22;11930;53.076;18.250;2023-06-24T03:17:50;17.00;99.90
23507;DHT22;11930;53.076;18.250;2023-06-24T03:20:17;17.00;99.90
23507;DHT22;11930;53.076;18.250;2023-06-24T03:22:43;17.00;99.90
23507;DHT22;11930;53.076;18.250;2023-06-24T03:25:11;17.00;99.90
23507;DHT22;11930;53.076;18.250;2023-06-24T03:27:38;17.00;99.90
23507;DHT22;11930;53.076;18.250;2023-06-24T03:30:04;17.00;99.90
23507;DHT22;11930;53.076;18.250;2023-06-24T03:32:33;17.00;99.90
23507;DHT22;11930;53.076;18.250;2023-06-24T03:35:03;17.00;99.90
23507;DHT22;11930;53.076;18.250;2023-06-24T03:37:29;17.00;99.90
23507;DHT22;11930;53.076;18.250;2023-06-24T03:39:56;16.90;99.90
23507;DHT22;11930;53.076;18.250;2023-06-24T03:42:23;17.00;99.90
23507;DHT22;11930;53.076;18.250;2023-06-24T03:44:49;17.00;99.90
23507;DHT22;11930;53.076;18.250;2023-06-24T03:47:15;17.10;99.90
23507;DHT22;11930;53.076;18.250;2023-06-24T03:49:41;17.10;99.90
23507;DHT22;11930;53.076;18.250;2023-06-24T03:52:08;17.10;99.90
23507;DHT22;11930;53.076;18.250;2023-06-24T03:54:35;17.10;99.90
23507;DHT22;11930;53.076;18.250;2023-06-24T03:57:01;17.10;99.90
23507;DHT22;11930;53.076;18.250;2023-06-24T03:59:27;17.10;99.90
23507;DHT22;11930;53.076;18.250;2023-06-24T04:01:55;17.00;99.90
23507;DHT22;11930;53.076;18.250;2023-06-24T04:04:21;17.10;99.90
23507;DHT22;11930;53.076;18.250;2023-06-24T04:06:49;17.10;99.90
23507;DHT22;11930;53.076;18.250;2023-06-24T04:09:15;17.10;99.90
23507;DHT22;11930;53.076;18.250;2023-06-24T04:14:07;17.10;99.90
23507;DHT22;11930;53.076;18.250;2023-06-24T04:16:35;17.10;99.90
23507;DHT22;11930;53.076;18.250;2023-06-24T04:19:02;17.10;99.90
23507;DHT22;11930;53.076;18.250;2023-06-24T04:21:28;17.10;99.90
23507;DHT22;11930;53.076;18.250;2023-06-24T04:23:54;17.10;99.90
23507;DHT22;11930;53.076;18.250;2023-06-24T04:26:20;17.20;99.90
23507;DHT22;11930;53.076;18.250;2023-06-24T04:28:46;17.20;99.90
23507;DHT22;11930;53.076;18.250;2023-06-24T04:31:12;17.30;99.90
23507;DHT22;11930;53.076;18.250;2023-06-24T04:33:41;17.40;99.90
23507;DHT22;11930;53.076;18.250;2023-06-24T04:36:07;17.50;99.90
23507;DHT22;11930;53.076;18.250;2023-06-24T04:38:34;17.60;99.90
23507;DHT22;11930;53.076;18.250;2023-06-24T04:41:01;17.60;99.90
23507;DHT22;11930;53.076;18.250;2023-06-24T04:45:56;17.80;99.90
23507;DHT22;11930;53.076;18.250;2023-06-24T04:48:26;17.80;99.90
23507;DHT22;11930;53.076;18.250;2023-06-24T04:50:52;17.80;99.90
23507;DHT22;11930;53.076;18.250;2023-06-24T04:53:20;17.90;99.90
23507;DHT22;11930;53.076;18.250;2023-06-24T04:55:47;17.80;99.90
23507;DHT22;11930;53.076;18.250;2023-06-24T04:58:13;17.80;99.90
23507;DHT22;11930;53.076;18.250;2023-06-24T05:00:39;17.80;99.90
23507;DHT22;11930;53.076;18.250;2023-06-24T05:03:04;17.80;99.90
23507;DHT22;11930;53.076;18.250;2023-06-24T05:05:31;18.00;99.90
23507;DHT22;11930;53.076;18.250;2023-06-24T05:07:57;18.10;99.90
23507;DHT22;11930;53.076;18.250;2023-06-24T05:10:23;18.20;99.90
23507;DHT22;11930;53.076;18.250;2023-06-24T05:15:15;18.50;99.90
23507;DHT22;11930;53.076;18.250;2023-06-24T05:17:42;18.70;99.90
23507;DHT22;11930;53.076;18.250;2023-06-24T05:20:09;18.90;99.90
23507;DHT22;11930;53.076;18.250;2023-06-24T05:22:35;19.10;99.90
23507;DHT22;11930;53.076;18.250;2023-06-24T05:25:01;19.30;99.90
23507;DHT22;11930;53.076;18.250;2023-06-24T05:27:27;19.40;99.90
23507;DHT22;11930;53.076;18.250;2023-06-24T05:29:53;19.60;99.90
23507;DHT22;11930;53.076;18.250;2023-06-24T05:34:46;19.90;99.90
23507;DHT22;11930;53.076;18.250;2023-06-24T05:39:40;20.60;99.90
23507;DHT22;11930;53.076;18.250;2023-06-24T05:42:06;21.60;99.90
23507;DHT22;11930;53.076;18.250;2023-06-24T05:44:32;22.10;99.90
23507;DHT22;11930;53.076;18.250;2023-06-24T05:46:59;22.10;99.90
23507;DHT22;11930;53.076;18.250;2023-06-24T05:49:25;23.10;99.90
23507;DHT22;11930;53.076;18.250;2023-06-24T05:54:17;23.50;99.90
23507;DHT22;11930;53.076;18.250;2023-06-24T05:56:43;23.50;99.90
23507;DHT22;11930;53.076;18.250;2023-06-24T05:59:10;23.40;99.90
23507;DHT22;11930;53.076;18.250;2023-06-24T06:01:36;23.40;99.90
23507;DHT22;11930;53.076;18.250;2023-06-24T06:04:02;23.30;99.90
23507;DHT22;11930;53.076;18.250;2023-06-24T06:06:28;23.30;99.90
23507;DHT22;11930;53.076;18.250;2023-06-24T06:08:55;23.40;99.90
23507;DHT22;11930;53.076;18.250;2023-06-24T06:11:21;23.40;99.90
23507;DHT22;11930;53.076;18.250;2023-06-24T06:13:47;23.50;99.90
23507;DHT22;11930;53.076;18.250;2023-06-24T06:16:13;23.70;98.60
23507;DHT22;11930;53.076;18.250;2023-06-24T06:18:39;23.80;99.90
23507;DHT22;11930;53.076;18.250;2023-06-24T06:21:05;24.00;99.90
23507;DHT22;11930;53.076;18.250;2023-06-24T06:23:32;24.20;98.90
23507;DHT22;11930;53.076;18.250;2023-06-24T06:25:58;24.20;97.80
23507;DHT22;11930;53.076;18.250;2023-06-24T06:28:24;24.20;98.60
23507;DHT22;11930;53.076;18.250;2023-06-24T06:30:50;24.40;96.30
23507;DHT22;11930;53.076;18.250;2023-06-24T06:33:16;24.40;97.70
23507;DHT22;11930;53.076;18.250;2023-06-24T06:35:42;24.50;96.80
23507;DHT22;11930;53.076;18.250;2023-06-24T06:38:10;24.30;95.10
23507;DHT22;11930;53.076;18.250;2023-06-24T06:40:36;24.30;94.60
23507;DHT22;11930;53.076;18.250;2023-06-24T06:43:02;24.10;94.60
23507;DHT22;11930;53.076;18.250;2023-06-24T06:45:28;23.70;96.20
23507;DHT22;11930;53.076;18.250;2023-06-24T06:47:54;23.70;96.10
23507;DHT22;11930;53.076;18.250;2023-06-24T06:50:20;23.40;96.60
23507;DHT22;11930;53.076;18.250;2023-06-24T06:52:46;23.10;97.10
23507;DHT22;11930;53.076;18.250;2023-06-24T06:57:39;22.60;98.50
23507;DHT22;11930;53.076;18.250;2023-06-24T07:00:05;22.40;98.70
23507;DHT22;11930;53.076;18.250;2023-06-24T07:02:32;22.40;99.00
23507;DHT22;11930;53.076;18.250;2023-06-24T07:04:58;22.10;99.90
23507;DHT22;11930;53.076;18.250;2023-06-24T07:07:25;21.90;99.90
23507;DHT22;11930;53.076;18.250;2023-06-24T07:12:17;21.90;99.90
23507;DHT22;11930;53.076;18.250;2023-06-24T07:14:43;21.80;99.90
23507;DHT22;11930;53.076;18.250;2023-06-24T07:19:36;22.50;99.90
23507;DHT22;11930;53.076;18.250;2023-06-24T07:22:02;22.80;99.90
23507;DHT22;11930;53.076;18.250;2023-06-24T07:24:28;22.70;99.70
23507;DHT22;11930;53.076;18.250;2023-06-24T07:26:54;23.00;98.70
23507;DHT22;11930;53.076;18.250;2023-06-24T07:29:20;23.30;97.10
23507;DHT22;11930;53.076;18.250;2023-06-24T07:31:47;23.30;97.30
23507;DHT22;11930;53.076;18.250;2023-06-24T07:34:13;23.40;96.50
23507;DHT22;11930;53.076;18.250;2023-06-24T07:36:42;24.00;94.90
23507;DHT22;11930;53.076;18.250;2023-06-24T07:39:10;24.00;95.00
23507;DHT22;11930;53.076;18.250;2023-06-24T07:41:37;24.60;94.10
23507;DHT22;11930;53.076;18.250;2023-06-24T07:44:03;26.60;92.80
23507;DHT22;11930;53.076;18.250;2023-06-24T07:48:56;25.90;87.10
23507;DHT22;11930;53.076;18.250;2023-06-24T07:51:22;26.10;85.60
23507;DHT22;11930;53.076;18.250;2023-06-24T07:53:48;26.10;85.70
23507;DHT22;11930;53.076;18.250;2023-06-24T07:58:40;26.10;84.90
23507;DHT22;11930;53.076;18.250;2023-06-24T08:03:33;26.10;82.70
23507;DHT22;11930;53.076;18.250;2023-06-24T08:08:26;26.00;83.20
23507;DHT22;11930;53.076;18.250;2023-06-24T08:10:53;26.00;82.50
23507;DHT22;11930;53.076;18.250;2023-06-24T08:13:19;26.00;81.60
23507;DHT22;11930;53.076;18.250;2023-06-24T08:15:45;26.50;82.10
23507;DHT22;11930;53.076;18.250;2023-06-24T08:18:11;26.80;79.30
23507;DHT22;11930;53.076;18.250;2023-06-24T08:20:37;26.70;80.00
23507;DHT22;11930;53.076;18.250;2023-06-24T08:23:03;26.90;76.10
23507;DHT22;11930;53.076;18.250;2023-06-24T08:25:29;26.70;72.00
23507;DHT22;11930;53.076;18.250;2023-06-24T08:32:49;26.40;74.10
23507;DHT22;11930;53.076;18.250;2023-06-24T08:40:09;26.30;72.60
23507;DHT22;11930;53.076;18.250;2023-06-24T08:42:35;26.60;70.70
23507;DHT22;11930;53.076;18.250;2023-06-24T08:47:28;26.90;70.20
23507;DHT22;11930;53.076;18.250;2023-06-24T08:50:08;27.20;66.50
23507;DHT22;11930;53.076;18.250;2023-06-24T08:52:38;27.70;72.30
23507;DHT22;11930;53.076;18.250;2023-06-24T08:55:06;28.10;67.50
23507;DHT22;11930;53.076;18.250;2023-06-24T08:57:35;28.30;66.90
23507;DHT22;11930;53.076;18.250;2023-06-24T09:00:09;28.30;65.80
23507;DHT22;11930;53.076;18.250;2023-06-24T09:02:42;28.60;61.60
23507;DHT22;11930;53.076;18.250;2023-06-24T09:05:09;28.70;63.70
23507;DHT22;11930;53.076;18.250;2023-06-24T09:07:37;28.60;61.30
23507;DHT22;11930;53.076;18.250;2023-06-24T09:12:32;28.40;62.30
23507;DHT22;11930;53.076;18.250;2023-06-24T09:14:59;28.30;62.90
23507;DHT22;11930;53.076;18.250;2023-06-24T09:22:18;28.50;59.70
23507;DHT22;11930;53.076;18.250;2023-06-24T09:24:46;28.50;61.40
23507;DHT22;11930;53.076;18.250;2023-06-24T09:27:16;28.30;61.10
23507;DHT22;11930;53.076;18.250;2023-06-24T09:37:06;27.40;64.20
23507;DHT22;11930;53.076;18.250;2023-06-24T09:39:37;27.20;65.60
23507;DHT22;11930;53.076;18.250;2023-06-24T09:42:05;27.00;66.10
23507;DHT22;11930;53.076;18.250;2023-06-24T09:44:32;27.00;65.60
23507;DHT22;11930;53.076;18.250;2023-06-24T09:49:25;26.70;66.30
23507;DHT22;11930;53.076;18.250;2023-06-24T09:51:58;26.60;65.10
23507;DHT22;11930;53.076;18.250;2023-06-24T09:54:26;26.40;63.80
23507;DHT22;11930;53.076;18.250;2023-06-24T09:57:01;26.40;64.50
23507;DHT22;11930;53.076;18.250;2023-06-24T10:01:55;26.20;63.70
23507;DHT22;11930;53.076;18.250;2023-06-24T10:06:48;26.10;68.00
23507;DHT22;11930;53.076;18.250;2023-06-24T10:09:16;26.00;70.60
23507;DHT22;11930;53.076;18.250;2023-06-24T10:11:46;26.10;69.60
23507;DHT22;11930;53.076;18.250;2023-06-24T10:14:15;26.00;71.60
23507;DHT22;11930;53.076;18.250;2023-06-24T10:16:42;26.00;70.30
23507;DHT22;11930;53.076;18.250;2023-06-24T10:19:09;26.00;67.20
23507;DHT22;11930;53.076;18.250;2023-06-24T10:21:53;26.00;69.10
23507;DHT22;11930;53.076;18.250;2023-06-24T10:24:33;26.10;67.50
23507;DHT22;11930;53.076;18.250;2023-06-24T10:27:04;26.10;69.20
23507;DHT22;11930;53.076;18.250;2023-06-24T10:29:35;26.20;67.40
23507;DHT22;11930;53.076;18.250;2023-06-24T10:32:06;26.20;69.50
23507;DHT22;11930;53.076;18.250;2023-06-24T10:34:38;26.20;66.80
23507;DHT22;11930;53.076;18.250;2023-06-24T10:37:10;26.20;67.50
23507;DHT22;11930;53.076;18.250;2023-06-24T10:39:40;26.10;68.60
23507;DHT22;11930;53.076;18.250;2023-06-24T10:42:44;25.90;69.60
23507;DHT22;11930;53.076;18.250;2023-06-24T10:45:15;25.80;70.20
23507;DHT22;11930;53.076;18.250;2023-06-24T10:47:44;25.70;69.80
23507;DHT22;11930;53.076;18.250;2023-06-24T10:50:12;25.60;69.10
23507;DHT22;11930;53.076;18.250;2023-06-24T10:52:39;25.70;69.30
23507;DHT22;11930;53.076;18.250;2023-06-24T10:55:06;25.80;68.80
23507;DHT22;11930;53.076;18.250;2023-06-24T10:57:33;25.80;69.30
23507;DHT22;11930;53.076;18.250;2023-06-24T11:02:27;25.80;70.90
23507;DHT22;11930;53.076;18.250;2023-06-24T11:05:01;25.90;69.90
23507;DHT22;11930;53.076;18.250;2023-06-24T11:07:32;25.90;70.80
23507;DHT22;11930;53.076;18.250;2023-06-24T11:10:14;25.80;69.40
23507;DHT22;11930;53.076;18.250;2023-06-24T11:12:42;26.20;72.50
23507;DHT22;11930;53.076;18.250;2023-06-24T11:15:10;26.30;71.40
23507;DHT22;11930;53.076;18.250;2023-06-24T11:17:37;26.50;67.80
23507;DHT22;11930;53.076;18.250;2023-06-24T11:20:11;26.70;66.50
23507;DHT22;11930;53.076;18.250;2023-06-24T11:25:04;26.70;65.40
23507;DHT22;11930;53.076;18.250;2023-06-24T11:27:31;26.70;69.00
23507;DHT22;11930;53.076;18.250;2023-06-24T11:29:59;26.80;69.50
23507;DHT22;11930;53.076;18.250;2023-06-24T11:32:41;26.80;68.20
23507;DHT22;11930;53.076;18.250;2023-06-24T11:35:09;26.70;69.00
23507;DHT22;11930;53.076;18.250;2023-06-24T11:37:36;26.70;65.00
23507;DHT22;11930;53.076;18.250;2023-06-24T11:40:06;26.70;65.20
23507;DHT22;11930;53.076;18.250;2023-06-24T11:42:36;26.80;65.90
23507;DHT22;11930;53.076;18.250;2023-06-24T11:45:05;26.80;64.50
23507;DHT22;11930;53.076;18.250;2023-06-24T11:47:33;26.90;64.00
23507;DHT22;11930;53.076;18.250;2023-06-24T11:50:00;26.90;67.20
23507;DHT22;11930;53.076;18.250;2023-06-24T11:52:47;27.00;64.20
23507;DHT22;11930;53.076;18.250;2023-06-24T11:55:23;26.90;63.50
23507;DHT22;11930;53.076;18.250;2023-06-24T11:57:57;26.80;63.10
23507;DHT22;11930;53.076;18.250;2023-06-24T12:00:28;26.70;66.00
23507;DHT22;11930;53.076;18.250;2023-06-24T12:02:56;26.70;65.70
23507;DHT22;11930;53.076;18.250;2023-06-24T12:05:24;26.60;63.10
23507;DHT22;11930;53.076;18.250;2023-06-24T12:08:11;26.50;62.00
23507;DHT22;11930;53.076;18.250;2023-06-24T12:17:58;26.40;65.90
23507;DHT22;11930;53.076;18.250;2023-06-24T12:20:25;26.60;66.30
23507;DHT22;11930;53.076;18.250;2023-06-24T12:27:45;26.70;62.50
23507;DHT22;11930;53.076;18.250;2023-06-24T12:30:12;26.60;61.90
23507;DHT22;11930;53.076;18.250;2023-06-24T12:32:38;26.60;62.30
23507;DHT22;11930;53.076;18.250;2023-06-24T12:35:05;26.40;63.70
23507;DHT22;11930;53.076;18.250;2023-06-24T12:37:32;26.20;64.10
23507;DHT22;11930;53.076;18.250;2023-06-24T12:52:13;25.90;64.70
23507;DHT22;11930;53.076;18.250;2023-06-24T12:54:39;26.00;65.00
23507;DHT22;11930;53.076;18.250;2023-06-24T12:57:05;26.00;65.10
23507;DHT22;11930;53.076;18.250;2023-06-24T13:06:51;26.40;64.90
23507;DHT22;11930;53.076;18.250;2023-06-24T13:09:17;26.40;66.30
23507;DHT22;11930;53.076;18.250;2023-06-24T13:11:43;26.50;63.20
23507;DHT22;11930;53.076;18.250;2023-06-24T13:14:10;26.60;64.90
23507;DHT22;11930;53.076;18.250;2023-06-24T13:16:38;26.50;65.50
23507;DHT22;11930;53.076;18.250;2023-06-24T13:19:05;26.50;62.30
23507;DHT22;11930;53.076;18.250;2023-06-24T13:21:31;26.50;64.10
23507;DHT22;11930;53.076;18.250;2023-06-24T13:23:57;26.50;63.90
23507;DHT22;11930;53.076;18.250;2023-06-24T13:26:23;26.40;61.30
23507;DHT22;11930;53.076;18.250;2023-06-24T13:28:50;26.50;62.00
23507;DHT22;11930;53.076;18.250;2023-06-24T13:31:18;26.40;59.70
23507;DHT22;11930;53.076;18.250;2023-06-24T13:36:25;26.40;62.30
23507;DHT22;11930;53.076;18.250;2023-06-24T13:41:19;26.20;60.30
23507;DHT22;11930;53.076;18.250;2023-06-24T13:43:45;26.10;61.90
23507;DHT22;11930;53.076;18.250;2023-06-24T13:46:11;26.10;61.90
23507;DHT22;11930;53.076;18.250;2023-06-24T13:48:38;26.00;59.20
23507;DHT22;11930;53.076;18.250;2023-06-24T13:51:03;26.10;59.70
23507;DHT22;11930;53.076;18.250;2023-06-24T13:53:30;25.90;61.90
23507;DHT22;11930;53.076;18.250;2023-06-24T13:55:55;25.90;63.70
23507;DHT22;11930;53.076;18.250;2023-06-24T13:58:22;25.80;63.90
23507;DHT22;11930;53.076;18.250;2023-06-24T14:00:47;25.80;65.20
23507;DHT22;11930;53.076;18.250;2023-06-24T14:03:13;25.70;65.40
23507;DHT22;11930;53.076;18.250;2023-06-24T14:05:40;25.60;66.70
23507;DHT22;11930;53.076;18.250;2023-06-24T14:08:06;25.50;67.90
23507;DHT22;11930;53.076;18.250;2023-06-24T14:12:58;25.50;66.50
23507;DHT22;11930;53.076;18.250;2023-06-24T14:15:24;25.50;67.10
23507;DHT22;11930;53.076;18.250;2023-06-24T14:17:50;25.50;67.60
23507;DHT22;11930;53.076;18.250;2023-06-24T14:20:16;25.60;66.00
23507;DHT22;11930;53.076;18.250;2023-06-24T14:22:42;25.60;65.00
23507;DHT22;11930;53.076;18.250;2023-06-24T14:25:08;25.60;65.60
23507;DHT22;11930;53.076;18.250;2023-06-24T14:27:34;25.70;66.60
23507;DHT22;11930;53.076;18.250;2023-06-24T14:30:00;25.80;66.20
23507;DHT22;11930;53.076;18.250;2023-06-24T14:32:26;25.80;65.60
23507;DHT22;11930;53.076;18.250;2023-06-24T14:34:52;26.00;64.90
23507;DHT22;11930;53.076;18.250;2023-06-24T14:37:18;26.00;64.60
23507;DHT22;11930;53.076;18.250;2023-06-24T14:39:44;26.10;65.10
23507;DHT22;11930;53.076;18.250;2023-06-24T14:42:10;26.10;65.00
23507;DHT22;11930;53.076;18.250;2023-06-24T14:44:36;26.10;64.70
23507;DHT22;11930;53.076;18.250;2023-06-24T14:47:03;26.10;65.50
23507;DHT22;11930;53.076;18.250;2023-06-24T14:49:29;26.20;66.00
23507;DHT22;11930;53.076;18.250;2023-06-24T14:51:55;26.20;63.80
23507;DHT22;11930;53.076;18.250;2023-06-24T14:54:22;26.20;63.50
23507;DHT22;11930;53.076;18.250;2023-06-24T14:56:48;26.30;64.00
23507;DHT22;11930;53.076;18.250;2023-06-24T14:59:14;26.30;62.40
23507;DHT22;11930;53.076;18.250;2023-06-24T15:01:41;26.20;62.60
23507;DHT22;11930;53.076;18.250;2023-06-24T15:06:35;26.10;66.50
23507;DHT22;11930;53.076;18.250;2023-06-24T15:09:01;26.00;68.00
23507;DHT22;11930;53.076;18.250;2023-06-24T15:11:28;25.80;66.40
23507;DHT22;11930;53.076;18.250;2023-06-24T15:13:53;25.60;66.00
23507;DHT22;11930;53.076;18.250;2023-06-24T15:16:20;25.60;66.10
23507;DHT22;11930;53.076;18.250;2023-06-24T15:18:46;25.40;67.40
23507;DHT22;11930;53.076;18.250;2023-06-24T15:21:16;25.40;67.10
23507;DHT22;11930;53.076;18.250;2023-06-24T15:23:42;25.40;68.90
23507;DHT22;11930;53.076;18.250;2023-06-24T15:26:08;25.40;66.10
23507;DHT22;11930;53.076;18.250;2023-06-24T15:35:54;25.50;63.50
23507;DHT22;11930;53.076;18.250;2023-06-24T15:38:20;25.50;64.30
23507;DHT22;11930;53.076;18.250;2023-06-24T15:43:13;25.50;64.50
23507;DHT22;11930;53.076;18.250;2023-06-24T15:45:39;25.60;64.30
23507;DHT22;11930;53.076;18.250;2023-06-24T15:48:05;25.60;65.40
23507;DHT22;11930;53.076;18.250;2023-06-24T15:50:32;25.80;62.10
23507;DHT22;11930;53.076;18.250;2023-06-24T15:52:58;25.80;62.20
23507;DHT22;11930;53.076;18.250;2023-06-24T15:55:24;25.80;61.10
23507;DHT22;11930;53.076;18.250;2023-06-24T15:57:50;25.90;61.40
23507;DHT22;11930;53.076;18.250;2023-06-24T16:00:17;25.90;59.60
23507;DHT22;11930;53.076;18.250;2023-06-24T16:02:42;26.00;59.90
23507;DHT22;11930;53.076;18.250;2023-06-24T16:05:09;26.00;59.50
23507;DHT22;11930;53.076;18.250;2023-06-24T16:07:35;26.00;57.50
23507;DHT22;11930;53.076;18.250;2023-06-24T16:10:02;26.00;59.20
23507;DHT22;11930;53.076;18.250;2023-06-24T16:12:28;26.00;58.20
23507;DHT22;11930;53.076;18.250;2023-06-24T16:14:55;26.00;58.70
23507;DHT22;11930;53.076;18.250;2023-06-24T16:17:21;26.10;59.80
23507;DHT22;11930;53.076;18.250;2023-06-24T16:22:14;26.10;58.70
23507;DHT22;11930;53.076;18.250;2023-06-24T16:27:06;26.20;58.70
23507;DHT22;11930;53.076;18.250;2023-06-24T16:29:33;26.10;58.00
23507;DHT22;11930;53.076;18.250;2023-06-24T16:31:59;26.00;58.70
23507;DHT22;11930;53.076;18.250;2023-06-24T16:36:53;26.10;59.40
23507;DHT22;11930;53.076;18.250;2023-06-24T16:39:20;26.10;59.50
23507;DHT22;11930;53.076;18.250;2023-06-24T16:44:13;26.10;58.80
23507;DHT22;11930;53.076;18.250;2023-06-24T16:46:39;26.00;60.20
23507;DHT22;11930;53.076;18.250;2023-06-24T16:49:06;26.00;59.10
23507;DHT22;11930;53.076;18.250;2023-06-24T16:58:56;25.90;59.80
23507;DHT22;11930;53.076;18.250;2023-06-24T17:03:49;25.70;59.30
23507;DHT22;11930;53.076;18.250;2023-06-24T17:08:42;25.70;60.10
23507;DHT22;11930;53.076;18.250;2023-06-24T17:13:34;25.70;59.50
23507;DHT22;11930;53.076;18.250;2023-06-24T17:16:00;25.60;60.70
23507;DHT22;11930;53.076;18.250;2023-06-24T17:18:26;25.50;61.70
23507;DHT22;11930;53.076;18.250;2023-06-24T17:20:55;25.50;62.70
23507;DHT22;11930;53.076;18.250;2023-06-24T17:23:21;25.40;63.50
23507;DHT22;11930;53.076;18.250;2023-06-24T17:25:47;25.40;64.40
23507;DHT22;11930;53.076;18.250;2023-06-24T17:30:40;25.40;64.70
23507;DHT22;11930;53.076;18.250;2023-06-24T17:33:06;25.30;64.50
23507;DHT22;11930;53.076;18.250;2023-06-24T17:40:25;25.00;65.30
23507;DHT22;11930;53.076;18.250;2023-06-24T17:42:51;24.80;66.20
23507;DHT22;11930;53.076;18.250;2023-06-24T17:47:45;24.70;68.50
23507;DHT22;11930;53.076;18.250;2023-06-24T17:50:11;24.50;67.90
23507;DHT22;11930;53.076;18.250;2023-06-24T17:52:37;24.50;67.80
23507;DHT22;11930;53.076;18.250;2023-06-24T17:55:03;24.40;67.80
23507;DHT22;11930;53.076;18.250;2023-06-24T17:57:30;24.30;68.70
23507;DHT22;11930;53.076;18.250;2023-06-24T17:59:56;24.20;68.90
23507;DHT22;11930;53.076;18.250;2023-06-24T18:02:22;24.10;69.70
23507;DHT22;11930;53.076;18.250;2023-06-24T18:04:48;24.00;70.10
23507;DHT22;11930;53.076;18.250;2023-06-24T18:07:14;23.90;70.50
23507;DHT22;11930;53.076;18.250;2023-06-24T18:12:07;23.70;70.60
23507;DHT22;11930;53.076;18.250;2023-06-24T18:14:33;23.50;71.30
23507;DHT22;11930;53.076;18.250;2023-06-24T18:16:59;23.50;72.50
23507;DHT22;11930;53.076;18.250;2023-06-24T18:19:25;22.60;71.30